sensor_id;sensor_type;location;lat;lon;timestamp;P1;durP1;ratioP1;P2;durP2;ratioP2
71821;SDS011;64096;52.548;13.406;2022-12-29T06:02:03;2.13;;;1.13;;
71821;SDS011;64096;52.548;13.406;2022-12-29T06:04:29;2.30;;;1.20;;
71821;SDS011;64096;52.548;13.406;2022-12-29T06:06:55;2.22;;;1.15;;
71821;SDS011;64096;52.548;13.406;2022-12-29T06:09:21;2.35;;;0.95;;
71821;SDS011;64096;52.548;13.406;2022-12-29T06:11:47;2.45;;;1.23;;
71821;SDS011;64096;52.548;13.406;2022-12-29T06:14:13;2.45;;;1.20;;
71821;SDS011;64096;52.548;13.406;2022-12-29T06:16:39;1.88;;;1.00;;
71821;SDS011;64096;52.548;13.406;2022-12-29T06:19:06;2.00;;;1.10;;
71821;SDS011;64096;52.548;13.406;2022-12-29T06:21:32;2.55;;;1.27;;
71821;SDS011;64096;52.548;13.406;2022-12-29T06:23:58;3.22;;;1.10;;
71821;SDS011;64096;52.548;13.406;2022-12-29T06:26:25;2.80;;;1.38;;
71821;SDS011;64096;52.548;13.406;2022-12-29T06:28:54;1.95;;;1.10;;
71821;SDS011;64096;52.548;13.406;2022-12-29T06:31:20;2.80;;;1.27;;
71821;SDS011;64096;52.548;13.406;2022-12-29T06:33:46;2.58;;;1.10;;
71821;SDS011;64096;52.548;13.406;2022-12-29T06:36:12;2.53;;;1.20;;
71821;SDS011;64096;52.548;13.406;2022-12-29T06:38:38;3.30;;;1.08;;
71821;SDS011;64096;52.548;13.406;2022-12-29T06:41:04;2.67;;;0.93;;
71821;SDS011;64096;52.548;13.406;2022-12-29T06:43:30;2.83;;;1.15;;
71821;SDS011;64096;52.548;13.406;2022-12-29T06:45:57;2.13;;;0.90;;
71821;SDS011;64096;52.548;13.406;2022-12-29T06:48:23;2.50;;;1.10;;
71821;SDS011;64096;52.548;13.406;2022-12-29T06:50:49;3.00;;;1.10;;
71821;SDS011;64096;52.548;13.406;2022-12-29T06:53:15;2.05;;;1.25;;
71821;SDS011;64096;52.548;13.406;2022-12-29T06:55:41;1.90;;;1.15;;
71821;SDS011;64096;52.548;13.406;2022-12-29T06:58:07;1.50;;;0.88;;
71821;SDS011;64096;52.548;13.406;2022-12-29T07:00:34;1.40;;;0.70;;
71821;SDS011;64096;52.548;13.406;2022-12-29T07:03:00;2.45;;;1.08;;
71821;SDS011;64096;52.548;13.406;2022-12-29T07:05:26;2.38;;;0.93;;
71821;SDS011;64096;52.548;13.406;2022-12-29T07:07:53;1.42;;;0.80;;
71821;SDS011;64096;52.548;13.406;2022-12-29T07:10:19;2.13;;;1.00;;
71821;SDS011;64096;52.548;13.406;2022-12-29T07:12:45;2.70;;;0.77;;
71821;SDS011;64096;52.548;13.406;2022-12-29T07:15:11;2.03;;;1.00;;
71821;SDS011;64096;52.548;13.406;2022-12-29T07:17:37;2.03;;;0.88;;
71821;SDS011;64096;52.548;13.406;2022-12-29T07:20:03;1.90;;;0.90;;
71821;SDS011;64096;52.548;13.406;2022-12-29T07:22:30;1.80;;;1.00;;
71821;SDS011;64096;52.548;13.406;2022-12-29T07:24:56;2.22;;;1.10;;
71821;SDS011;64096;52.548;13.406;2022-12-29T07:27:22;2.03;;;1.00;;
71821;SDS011;64096;52.548;13.406;2022-12-29T07:29:53;1.50;;;0.80;;
71821;SDS011;64096;52.548;13.406;2022-12-29T07:32:19;2.28;;;0.90;;
71821;SDS011;64096;52.548;13.406;2022-12-29T07:34:45;2.05;;;1.10;;
71821;SDS011;64096;52.548;13.406;2022-12-29T07:37:12;2.25;;;1.10;;
71821;SDS011;64096;52.548;13.406;2022-12-29T07:39:39;1.58;;;1.02;;
71821;SDS011;64096;52.548;13.406;2022-12-29T07:42:05;1.70;;;0.80;;
71821;SDS011;64096;52.548;13.406;2022-12-29T07:44:31;1.67;;;0.80;;
71821;SDS011;64096;52.548;13.406;2022-12-29T07:46:57;2.42;;;1.10;;
71821;SDS011;64096;52.548;13.406;2022-12-29T07:49:23;1.73;;;0.90;;
71821;SDS011;64096;52.548;13.406;2022-12-29T07:51:49;2.35;;;1.02;;
71821;SDS011;64096;52.548;13.406;2022-12-29T07:54:15;1.95;;;0.85;;
71821;SDS011;64096;52.548;13.406;2022-12-29T07:56:43;2.80;;;1.00;;
71821;SDS011;64096;52.548;13.406;2022-12-29T07:59:09;2.50;;;1.10;;
71821;SDS011;64096;52.548;13.406;2022-12-29T08:01:37;1.73;;;0.85;;
71821;SDS011;64096;52.548;13.406;2022-12-29T08:04:03;1.90;;;1.08;;
71821;SDS011;64096;52.548;13.406;2022-12-29T08:06:29;2.05;;;1.00;;
71821;SDS011;64096;52.548;13.406;2022-12-29T08:08:56;1.92;;;1.00;;
71821;SDS011;64096;52.548;13.406;2022-12-29T08:11:22;2.33;;;0.93;;
71821;SDS011;64096;52.548;13.406;2022-12-29T08:13:48;1.67;;;0.82;;
71821;SDS011;64096;52.548;13.406;2022-12-29T08:16:14;2.47;;;1.00;;
71821;SDS011;64096;52.548;13.406;2022-12-29T08:18:40;2.10;;;1.05;;
71821;SDS011;64096;52.548;13.406;2022-12-29T08:21:06;1.80;;;1.05;;
71821;SDS011;64096;52.548;13.406;2022-12-29T08:23:32;1.70;;;0.80;;
71821;SDS011;64096;52.548;13.406;2022-12-29T08:25:59;1.63;;;0.77;;
71821;SDS011;64096;52.548;13.406;2022-12-29T08:28:26;2.85;;;1.10;;
71821;SDS011;64096;52.548;13.406;2022-12-29T08:30:52;1.52;;;0.75;;
71821;SDS011;64096;52.548;13.406;2022-12-29T08:33:18;1.65;;;0.80;;
71821;SDS011;64096;52.548;13.406;2022-12-29T08:35:44;2.85;;;1.10;;
71821;SDS011;64096;52.548;13.406;2022-12-29T08:38:10;1.75;;;1.00;;
71821;SDS011;64096;52.548;13.406;2022-12-29T08:40:36;2.38;;;0.93;;
71821;SDS011;64096;52.548;13.406;2022-12-29T08:43:02;2.58;;;1.00;;
71821;SDS011;64096;52.548;13.406;2022-12-29T08:45:28;2.45;;;1.00;;
71821;SDS011;64096;52.548;13.406;2022-12-29T08:47:54;1.83;;;1.00;;
71821;SDS011;64096;52.548;13.406;2022-12-29T08:50:20;2.35;;;0.90;;
71821;SDS011;64096;52.548;13.406;2022-12-29T08:52:46;3.38;;;1.10;;
71821;SDS011;64096;52.548;13.406;2022-12-29T08:55:13;2.05;;;0.88;;
71821;SDS011;64096;52.548;13.406;2022-12-29T08:57:39;2.00;;;1.00;;
71821;SDS011;64096;52.548;13.406;2022-12-29T09:00:05;3.15;;;1.10;;
71821;SDS011;64096;52.548;13.406;2022-12-29T09:02:31;2.47;;;1.17;;
71821;SDS011;64096;52.548;13.406;2022-12-29T09:04:57;2.03;;;1.15;;
71821;SDS011;64096;52.548;13.406;2022-12-29T09:07:24;1.73;;;0.95;;
71821;SDS011;64096;52.548;13.406;2022-12-29T09:09:50;2.28;;;1.08;;
71821;SDS011;64096;52.548;13.406;2022-12-29T09:12:17;2.38;;;1.10;;
71821;SDS011;64096;52.548;13.406;2022-12-29T09:14:43;2.35;;;0.80;;
71821;SDS011;64096;52.548;13.406;2022-12-29T09:17:09;3.05;;;0.90;;
71821;SDS011;64096;52.548;13.406;2022-12-29T09:19:54;2.22;;;1.02;;
71821;SDS011;64096;52.548;13.406;2022-12-29T09:22:20;3.10;;;0.98;;
71821;SDS011;64096;52.548;13.406;2022-12-29T09:24:46;1.35;;;0.95;;
71821;SDS011;64096;52.548;13.406;2022-12-29T09:27:12;2.03;;;0.80;;
71821;SDS011;64096;52.548;13.406;2022-12-29T09:29:39;1.33;;;0.73;;
71821;SDS011;64096;52.548;13.406;2022-12-29T09:32:05;1.65;;;0.90;;
71821;SDS011;64096;52.548;13.406;2022-12-29T09:34:32;5.65;;;1.30;;
71821;SDS011;64096;52.548;13.406;2022-12-29T09:36:58;1.27;;;0.82;;
71821;SDS011;64096;52.548;13.406;2022-12-29T09:39:24;2.85;;;1.05;;
71821;SDS011;64096;52.548;13.406;2022-12-29T09:41:53;1.77;;;0.82;;
71821;SDS011;64096;52.548;13.406;2022-12-29T09:45:25;3.38;;;1.10;;
71821;SDS011;64096;52.548;13.406;2022-12-29T09:47:17;1.38;;;0.88;;
71821;SDS011;64096;52.548;13.406;2022-12-29T09:52:21;1.55;;;0.88;;
71821;SDS011;64096;52.548;13.406;2022-12-29T09:54:51;1.92;;;0.93;;
71821;SDS011;64096;52.548;13.406;2022-12-29T09:57:29;2.55;;;1.10;;
71821;SDS011;64096;52.548;13.406;2022-12-29T09:59:59;1.73;;;0.95;;
71821;SDS011;64096;52.548;13.406;2022-12-29T10:04:57;2.05;;;0.90;;
71821;SDS011;64096;52.548;13.406;2022-12-29T10:10:00;2.72;;;0.90;;
71821;SDS011;64096;52.548;13.406;2022-12-29T10:14:57;2.47;;;1.20;;
71821;SDS011;64096;52.548;13.406;2022-12-29T10:20:07;2.22;;;0.90;;
71821;SDS011;64096;52.548;13.406;2022-12-29T10:22:45;1.80;;;1.00;;
71821;SDS011;64096;52.548;13.406;2022-12-29T10:25:20;3.92;;;0.95;;
71821;SDS011;64096;52.548;13.406;2022-12-29T10:27:48;1.38;;;0.90;;
71821;SDS011;64096;52.548;13.406;2022-12-29T10:30:15;2.50;;;1.00;;
71821;SDS011;64096;52.548;13.406;2022-12-29T10:35:16;1.38;;;0.70;;
71821;SDS011;64096;52.548;13.406;2022-12-29T10:37:46;2.42;;;0.88;;
71821;SDS011;64096;52.548;13.406;2022-12-29T10:40:22;2.08;;;0.90;;
71821;SDS011;64096;52.548;13.406;2022-12-29T10:42:53;2.05;;;0.95;;
71821;SDS011;64096;52.548;13.406;2022-12-29T10:45:19;2.40;;;0.93;;
71821;SDS011;64096;52.548;13.406;2022-12-29T10:48:05;2.20;;;1.08;;
71821;SDS011;64096;52.548;13.406;2022-12-29T10:50:32;1.63;;;0.85;;
71821;SDS011;64096;52.548;13.406;2022-12-29T10:52:59;2.05;;;0.93;;
71821;SDS011;64096;52.548;13.406;2022-12-29T10:55:27;2.58;;;1.00;;
71821;SDS011;64096;52.548;13.406;2022-12-29T10:57:54;2.05;;;0.90;;
71821;SDS011;64096;52.548;13.406;2022-12-29T11:00:22;1.77;;;0.80;;
71821;SDS011;64096;52.548;13.406;2022-12-29T11:07:47;1.70;;;0.77;;
71821;SDS011;64096;52.548;13.406;2022-12-29T11:12:54;2.08;;;1.15;;
71821;SDS011;64096;52.548;13.406;2022-12-29T11:15:20;2.00;;;0.80;;
71821;SDS011;64096;52.548;13.406;2022-12-29T11:22:45;1.45;;;0.80;;
71821;SDS011;64096;52.548;13.406;2022-12-29T11:25:12;2.33;;;0.85;;
71821;SDS011;64096;52.548;13.406;2022-12-29T11:27:38;1.63;;;0.80;;
71821;SDS011;64096;52.548;13.406;2022-12-29T11:30:21;2.28;;;0.80;;
71821;SDS011;64096;52.548;13.406;2022-12-29T11:32:51;2.40;;;0.70;;
71821;SDS011;64096;52.548;13.406;2022-12-29T11:37:56;2.10;;;0.82;;
71821;SDS011;64096;52.548;13.406;2022-12-29T11:40:23;2.05;;;0.73;;
71821;SDS011;64096;52.548;13.406;2022-12-29T11:43:02;1.77;;;0.80;;
71821;SDS011;64096;52.548;13.406;2022-12-29T11:45:35;1.98;;;1.00;;
71821;SDS011;64096;52.548;13.406;2022-12-29T11:50:32;2.42;;;1.00;;
71821;SDS011;64096;52.548;13.406;2022-12-29T11:53:14;2.33;;;0.70;;
71821;SDS011;64096;52.548;13.406;2022-12-29T11:55:49;2.35;;;0.75;;
71821;SDS011;64096;52.548;13.406;2022-12-29T11:58:16;1.60;;;0.60;;
71821;SDS011;64096;52.548;13.406;2022-12-29T12:00:42;2.22;;;0.70;;
71821;SDS011;64096;52.548;13.406;2022-12-29T12:10:43;0.90;;;0.50;;
71821;SDS011;64096;52.548;13.406;2022-12-29T12:13:25;1.70;;;0.57;;
71821;SDS011;64096;52.548;13.406;2022-12-29T12:16:09;0.70;;;0.55;;
71821;SDS011;64096;52.548;13.406;2022-12-29T12:18:39;1.27;;;0.47;;
71821;SDS011;64096;52.548;13.406;2022-12-29T12:26:11;0.85;;;0.40;;
71821;SDS011;64096;52.548;13.406;2022-12-29T12:28:44;0.63;;;0.45;;
71821;SDS011;64096;52.548;13.406;2022-12-29T12:34:00;1.55;;;0.65;;
71821;SDS011;64096;52.548;13.406;2022-12-29T12:44:36;2.72;;;0.75;;
71821;SDS011;64096;52.548;13.406;2022-12-29T12:57:08;0.63;;;0.38;;
71821;SDS011;64096;52.548;13.406;2022-12-29T13:10:32;0.90;;;0.40;;
71821;SDS011;64096;52.548;13.406;2022-12-29T13:13:20;1.17;;;0.30;;
71821;SDS011;64096;52.548;13.406;2022-12-29T13:23:31;1.05;;;0.43;;
71821;SDS011;64096;52.548;13.406;2022-12-29T13:28:55;1.08;;;0.50;;
71821;SDS011;64096;52.548;13.406;2022-12-29T13:33:53;1.10;;;0.60;;
71821;SDS011;64096;52.548;13.406;2022-12-29T13:36:39;1.25;;;0.60;;
71821;SDS011;64096;52.548;13.406;2022-12-29T13:39:28;0.90;;;0.50;;
71821;SDS011;64096;52.548;13.406;2022-12-29T13:41:57;2.00;;;0.80;;
71821;SDS011;64096;52.548;13.406;2022-12-29T13:44:27;1.08;;;0.60;;
71821;SDS011;64096;52.548;13.406;2022-12-29T13:46:54;1.13;;;0.60;;
71821;SDS011;64096;52.548;13.406;2022-12-29T13:49:22;1.55;;;0.80;;
71821;SDS011;64096;52.548;13.406;2022-12-29T13:51:56;1.50;;;0.60;;
71821;SDS011;64096;52.548;13.406;2022-12-29T13:57:12;1.52;;;0.68;;
71821;SDS011;64096;52.548;13.406;2022-12-29T13:59:59;1.17;;;0.70;;
